LTAF/ADA METAR and TAF weather

Enter ICAO airport designator
Station Type Date Time Source
LTAF METAR 2021/03/02 02:50 UTC NOAA

LTAF 020250Z 05007KT CAVOK 09/M02 Q1020 NOSIG


Station Type Date Time Source
LTAF Decoded METAR 2021/03/02 02:50 UTC NOAA

Adana / Sakirpasa, Turkey (LTAF) 36-59N 035-18E 20M
Mar 01, 2021 - 09:50 PM EST / 2021.03.02 0250 UTC
Wind: from the NE (050 degrees) at 8 MPH (7 KT):0
Visibility: greater than 7 mile(s):0
Temperature: 48 F (9 C)
Dew Point: 28 F (-2 C)
Relative Humidity: 45%
Pressure (altimeter): 30.12 in. Hg (1020 hPa)
ob: LTAF 020250Z 05007KT CAVOK 09/M02 Q1020 NOSIG
cycle: 3

Station Type Date Time Source
LTAF TAF 2021/03/01 18:01 UTC NOAA

TAF LTAF 011640Z 0118/0218 VRB02KT CAVOK

Example: see airport list